Time;durP1;ratioP1;P1;durP2;ratioP2;P2;SDS_P1;SDS_P2;PMS_P1;PMS_P2;Temp;Humidity;BMP_temperature;BMP_pressure;BME280_temperature;BME280_humidity;BME280_pressure;Samples;Min_cycle;Max_cycle;Signal;HPM_P1;HPM_P2
2023/03/21 00:02:25;;;;;;;;;;;;;;;;;;5092186;28;19908;-42
2023/03/21 00:04:50;;;;;;;;;;;;;;;;;;5092771;28;20388;-44
2023/03/21 00:07:15;;;;;;;;;;;;;;;;;;5093970;28;19935;-43
2023/03/21 00:09:41;;;;;;;;;;;;;;;;;;5092070;28;19908;-43
2023/03/21 00:12:08;;;;;;;;;;;;;;;;;;5092281;28;19908;-44
2023/03/21 00:14:34;;;;;;;;;;;;;;;;;;5092528;28;19916;-44
2023/03/21 00:16:59;;;;;;;;;;;;;;;;;;5091867;28;19919;-42
2023/03/21 00:19:25;;;;;;;;;;;;;;;;;;5092431;28;19909;-42
2023/03/21 00:21:51;;;;;;;;;;;;;;;;;;5091085;28;19919;-42
2023/03/21 00:24:16;;;;;;;;;;;;;;;;;;5092637;28;19973;-43
2023/03/21 00:26:41;;;;;;;;;;;;;;;;;;5094445;28;19938;-42
2023/03/21 00:29:07;;;;;;;;;;;;;;;;;;5092477;28;20386;-43
2023/03/21 00:31:32;;;;;;;;;;;;;;;;;;5092077;28;19937;-42
2023/03/21 00:33:58;;;;;;;;;;;;;;;;;;5092306;28;19973;-43
2023/03/21 00:36:26;;;;;;;;;;;;;;;;;;5094876;28;19912;-42
2023/03/21 00:38:52;;;;;;;;;;;;;;;;;;5089556;28;19916;-46
2023/03/21 00:41:17;;;;;;;;;;;;;;;;;;5090437;28;19938;-43
2023/03/21 00:43:42;;;;;;;;;;;;;;;;;;5090200;28;20322;-42
2023/03/21 00:46:08;;;;;;;;;;;;;;;;;;5091750;28;19912;-43
2023/03/21 00:48:33;;;;;;;;;;;;;;;;;;5095144;28;19912;-42
2023/03/21 00:50:59;;;;;;;;;;;;;;;;;;5095978;28;19908;-42
2023/03/21 00:53:24;;;;;;;;;;;;;;;;;;5094677;28;19908;-44
2023/03/21 00:55:50;;;;;;;;;;;;;;;;;;5098238;28;19908;-43
2023/03/21 00:58:15;;;;;;;;;;;;;;;;;;5094329;28;19912;-42
2023/03/21 01:00:41;;;;;;;;;;;;;;;;;;5094712;28;19912;-43
2023/03/21 01:03:06;;;;;;;;;;;;;;;;;;5095446;28;19953;-41
2023/03/21 01:08:16;;;;;;;;;;;;;;;;;;5094777;28;19930;-47
2023/03/21 01:10:41;;;;;;;;;;;;;;;;;;5092003;28;20380;-42
2023/03/21 01:13:06;;;;;;;;;;;;;;;;;;5090383;28;20460;-42
2023/03/21 01:15:32;;;;;;;;;;;;;;;;;;5098358;28;19916;-45
2023/03/21 01:17:57;;;;;;;;;;;;;;;;;;5094707;28;20086;-43
2023/03/21 01:20:23;;;;;;;;;;;;;;;;;;5095411;28;20292;-43
2023/03/21 01:22:48;;;;;;;;;;;;;;;;;;5094779;28;20352;-45
2023/03/21 01:25:14;;;;;;;;;;;;;;;;;;5094892;28;19908;-42
2023/03/21 01:27:39;;;;;;;;;;;;;;;;;;5094338;28;20265;-42
2023/03/21 01:30:05;;;;;;;;;;;;;;;;;;5094402;28;19915;-45
2023/03/21 01:32:30;;;;;;;;;;;;;;;;;;5094598;28;19908;-42
2023/03/21 01:34:56;;;;;;;;;;;;;;;;;;5094424;28;19916;-43
2023/03/21 01:37:21;;;;;;;;;;;;;;;;;;5094225;28;19915;-41
2023/03/21 01:39:47;;;;;;;;;;;;;;;;;;5094394;28;19908;-41
2023/03/21 01:42:12;;;;;;;;;;;;;;;;;;5094457;28;20266;-45
2023/03/21 01:44:38;;;;;;;;;;;;;;;;;;5094163;28;20029;-42
2023/03/21 01:47:03;;;;;;;;;;;;;;;;;;5094097;28;19908;-41
2023/03/21 01:49:33;;;;;;;;;;;;;;;;;;5094267;28;19923;-43
2023/03/21 01:51:58;;;;;;;;;;;;;;;;;;5094267;28;20026;-43
2023/03/21 01:54:24;;;;;;;;;;;;;;;;;;5094245;28;20404;-42
2023/03/21 01:56:49;;;;;;;;;;;;;;;;;;5093695;28;20422;-42
2023/03/21 01:59:16;;;;;;;;;;;;;;;;;;5093954;28;19933;-43
2023/03/21 02:01:41;;;;;;;;;;;;;;;;;;5093923;28;19909;-42
2023/03/21 02:04:07;;;;;;;;;;;;;;;;;;5091225;28;20136;-43
2023/03/21 02:06:34;;;;;;;;;;;;;;;;;;5091754;28;19943;-43
2023/03/21 02:08:59;;;;;;;;;;;;;;;;;;5093280;28;19913;-43
2023/03/21 02:11:25;;;;;;;;;;;;;;;;;;5093943;28;19915;-42
2023/03/21 02:13:51;;;;;;;;;;;;;;;;;;5076118;28;19920;-43
2023/03/21 02:16:16;;;;;;;;;;;;;;;;;;5094071;28;19915;-43
2023/03/21 02:18:42;;;;;;;;;;;;;;;;;;5075877;28;19912;-42
2023/03/21 02:21:07;;;;;;;;;;;;;;;;;;5094200;28;19951;-42
2023/03/21 02:23:33;;;;;;;;;;;;;;;;;;5092676;28;19909;-42
2023/03/21 02:25:58;;;;;;;;;;;;;;;;;;5097726;28;20007;-46
2023/03/21 02:28:24;;;;;;;;;;;;;;;;;;5092923;28;19908;-42
2023/03/21 02:30:49;;;;;;;;;;;;;;;;;;5092514;28;19920;-42
2023/03/21 02:33:15;;;;;;;;;;;;;;;;;;5091980;28;20002;-42
2023/03/21 02:35:40;;;;;;;;;;;;;;;;;;5096381;28;20002;-41
2023/03/21 02:38:06;;;;;;;;;;;;;;;;;;5089646;28;19916;-43
2023/03/21 02:40:31;;;;;;;;;;;;;;;;;;5093022;28;19912;-42
2023/03/21 02:42:56;;;;;;;;;;;;;;;;;;5093688;28;20287;-43
2023/03/21 02:45:22;;;;;;;;;;;;;;;;;;5093715;28;20351;-42
2023/03/21 02:47:48;;;;;;;;;;;;;;;;;;5090952;28;19908;-45
2023/03/21 02:50:13;;;;;;;;;;;;;;;;;;5082568;28;19919;-43
2023/03/21 02:52:40;;;;;;;;;;;;;;;;;;5093192;28;19908;-43
2023/03/21 02:55:12;;;;;;;;;;;;;;;;;;5092647;28;20292;-43
2023/03/21 02:57:37;;;;;;;;;;;;;;;;;;5093028;28;19909;-42
2023/03/21 03:00:07;;;;;;;;;;;;;;;;;;5093656;28;19912;-42
2023/03/21 03:02:33;;;;;;;;;;;;;;;;;;5093439;28;19912;-47
2023/03/21 03:04:59;;;;;;;;;;;;;;;;;;5089454;28;19924;-47
2023/03/21 03:07:24;;;;;;;;;;;;;;;;;;5093162;28;19914;-47
2023/03/21 03:09:50;;;;;;;;;;;;;;;;;;5092813;28;20003;-48
2023/03/21 03:12:16;;;;;;;;;;;;;;;;;;5092822;28;19915;-46
2023/03/21 03:14:41;;;;;;;;;;;;;;;;;;5093003;28;20034;-47
2023/03/21 03:17:07;;;;;;;;;;;;;;;;;;5089472;28;20389;-47
2023/03/21 03:19:32;;;;;;;;;;;;;;;;;;5089107;28;20006;-47
2023/03/21 03:21:58;;;;;;;;;;;;;;;;;;5090653;28;20569;-47
2023/03/21 03:24:23;;;;;;;;;;;;;;;;;;5101151;28;20372;-47
2023/03/21 03:26:48;;;;;;;;;;;;;;;;;;5093041;28;19913;-47
2023/03/21 03:29:15;;;;;;;;;;;;;;;;;;5093487;28;19908;-47
2023/03/21 03:31:40;;;;;;;;;;;;;;;;;;5093456;28;19915;-46
2023/03/21 03:34:07;;;;;;;;;;;;;;;;;;5093245;28;19916;-47
2023/03/21 03:36:34;;;;;;;;;;;;;;;;;;5092752;28;19915;-47
2023/03/21 03:38:59;;;;;;;;;;;;;;;;;;5092661;28;19909;-47
2023/03/21 03:41:25;;;;;;;;;;;;;;;;;;5092868;28;19916;-47
2023/03/21 03:43:52;;;;;;;;;;;;;;;;;;5092784;28;19909;-47
2023/03/21 03:46:17;;;;;;;;;;;;;;;;;;5092576;28;19947;-47
2023/03/21 03:48:45;;;;;;;;;;;;;;;;;;5092484;28;19958;-47
2023/03/21 03:51:10;;;;;;;;;;;;;;;;;;5092692;28;19981;-41
2023/03/21 03:53:36;;;;;;;;;;;;;;;;;;5091827;28;20020;-42
2023/03/21 03:56:02;;;;;;;;;;;;;;;;;;5092481;28;20356;-41
2023/03/21 03:58:27;;;;;;;;;;;;;;;;;;5092226;28;19912;-46
2023/03/21 04:00:53;;;;;;;;;;;;;;;;;;5092629;28;20001;-47
2023/03/21 04:03:18;;;;;;;;;;;;;;;;;;5089985;28;19916;-46
2023/03/21 04:05:47;;;;;;;;;;;;;;;;;;5092991;28;19927;-49
2023/03/21 04:08:12;;;;;;;;;;;;;;;;;;5091330;28;19919;-46
2023/03/21 04:10:38;;;;;;;;;;;;;;;;;;5094693;28;19912;-46
2023/03/21 04:13:03;;;;;;;;;;;;;;;;;;5092076;28;19909;-46
2023/03/21 04:15:29;;;;;;;;;;;;;;;;;;5107826;28;19923;-45
2023/03/21 04:17:54;;;;;;;;;;;;;;;;;;5093613;28;19908;-46
2023/03/21 04:20:20;;;;;;;;;;;;;;;;;;5086760;28;20293;-47
2023/03/21 04:22:45;;;;;;;;;;;;;;;;;;5074364;28;19909;-46
2023/03/21 04:25:12;;;;;;;;;;;;;;;;;;5076213;28;19915;-50
2023/03/21 04:27:37;;;;;;;;;;;;;;;;;;5075889;28;20261;-46
2023/03/21 04:30:04;;;;;;;;;;;;;;;;;;5075908;28;19932;-46
2023/03/21 04:32:32;;;;;;;;;;;;;;;;;;5087620;28;19962;-46
2023/03/21 04:34:58;;;;;;;;;;;;;;;;;;5096120;28;19942;-47
2023/03/21 04:37:23;;;;;;;;;;;;;;;;;;5096134;28;20356;-46
2023/03/21 04:39:49;;;;;;;;;;;;;;;;;;5095983;28;19920;-47
2023/03/21 04:42:14;;;;;;;;;;;;;;;;;;5095758;28;19908;-47
2023/03/21 04:44:40;;;;;;;;;;;;;;;;;;5095841;28;20387;-47
2023/03/21 04:47:05;;;;;;;;;;;;;;;;;;5091213;28;20296;-46
2023/03/21 04:49:30;;;;;;;;;;;;;;;;;;5099282;28;19999;-46
2023/03/21 04:51:56;;;;;;;;;;;;;;;;;;5095811;28;20019;-46
2023/03/21 04:54:21;;;;;;;;;;;;;;;;;;5095778;28;20003;-46
2023/03/21 04:56:47;;;;;;;;;;;;;;;;;;5095637;28;19908;-47
2023/03/21 04:59:12;;;;;;;;;;;;;;;;;;5095719;28;20436;-46
2023/03/21 05:01:40;;;;;;;;;;;;;;;;;;5095790;28;20408;-46
2023/03/21 05:04:05;;;;;;;;;;;;;;;;;;5095467;28;19916;-46
2023/03/21 05:06:30;;;;;;;;;;;;;;;;;;5095249;28;19930;-46
2023/03/21 05:08:58;;;;;;;;;;;;;;;;;;5095379;28;19908;-46
2023/03/21 05:11:24;;;;;;;;;;;;;;;;;;5095096;28;19908;-47
2023/03/21 05:13:49;;;;;;;;;;;;;;;;;;5095269;28;20365;-46
2023/03/21 05:16:15;;;;;;;;;;;;;;;;;;5095229;28;19908;-47
2023/03/21 05:18:40;;;;;;;;;;;;;;;;;;5095362;28;19921;-47
2023/03/21 05:21:09;;;;;;;;;;;;;;;;;;5095219;28;19915;-47
2023/03/21 05:23:37;;;;;;;;;;;;;;;;;;5094551;28;19959;-47
2023/03/21 05:26:02;;;;;;;;;;;;;;;;;;5097958;28;19919;-47
2023/03/21 05:28:30;;;;;;;;;;;;;;;;;;5095362;28;19908;-46
2023/03/21 05:30:55;;;;;;;;;;;;;;;;;;5094994;28;19908;-47
2023/03/21 05:33:21;;;;;;;;;;;;;;;;;;5094567;28;19913;-46
2023/03/21 05:35:46;;;;;;;;;;;;;;;;;;5094506;28;20268;-47
2023/03/21 05:38:12;;;;;;;;;;;;;;;;;;5094798;28;20376;-47
2023/03/21 05:40:37;;;;;;;;;;;;;;;;;;5095006;28;19908;-47
2023/03/21 05:43:02;;;;;;;;;;;;;;;;;;5095025;28;19913;-47
2023/03/21 05:45:28;;;;;;;;;;;;;;;;;;5094964;28;19915;-47
2023/03/21 05:47:53;;;;;;;;;;;;;;;;;;5108429;22;19981;-47
2023/03/21 05:50:19;;;;;;;;;;;;;;;;;;5115220;28;19908;-46
2023/03/21 05:52:44;;;;;;;;;;;;;;;;;;5115175;28;19914;-46
2023/03/21 05:55:10;;;;;;;;;;;;;;;;;;5114848;28;19916;-46
2023/03/21 05:57:38;;;;;;;;;;;;;;;;;;5115214;27;19947;-47
2023/03/21 06:00:03;;;;;;;;;;;;;;;;;;5115361;28;19912;-47
2023/03/21 06:02:29;;;;;;;;;;;;;;;;;;5114944;28;19907;-47
2023/03/21 06:04:55;;;;;;;;;;;;;;;;;;5114831;28;19950;-47
2023/03/21 06:07:20;;;;;;;;;;;;;;;;;;5114494;28;19908;-47
2023/03/21 06:09:46;;;;;;;;;;;;;;;;;;5114796;28;19907;-47
2023/03/21 06:12:11;;;;;;;;;;;;;;;;;;5114921;28;19908;-47
2023/03/21 06:14:37;;;;;;;;;;;;;;;;;;5115257;27;19915;-47
2023/03/21 06:17:02;;;;;;;;;;;;;;;;;;5114359;28;19908;-47
2023/03/21 06:19:28;;;;;;;;;;;;;;;;;;5118605;27;19956;-47
2023/03/21 06:21:53;;;;;;;;;;;;;;;;;;5135114;27;20154;-47
2023/03/21 06:24:18;;;;;;;;;;;;;;;;;;5135148;27;19908;-47
2023/03/21 06:26:44;;;;;;;;;;;;;;;;;;5119878;27;19914;-47
2023/03/21 06:29:09;;;;;;;;;;;;;;;;;;5109847;27;19961;-47
2023/03/21 06:31:35;;;;;;;;;;;;;;;;;;5106471;27;20392;-46
2023/03/21 06:34:00;;;;;;;;;;;;;;;;;;5104852;28;19915;-46
2023/03/21 06:36:26;;;;;;;;;;;;;;;;;;5113919;28;19918;-46
2023/03/21 06:38:51;;;;;;;;;;;;;;;;;;5113057;27;19920;-46
2023/03/21 06:41:16;;;;;;;;;;;;;;;;;;5121857;27;19919;-46
2023/03/21 06:43:42;;;;;;;;;;;;;;;;;;5134757;27;19908;-47
2023/03/21 06:46:07;;;;;;;;;;;;;;;;;;5143053;27;19917;-46
2023/03/21 06:48:33;;;;;;;;;;;;;;;;;;5130703;27;19920;-47
2023/03/21 06:50:58;;;;;;;;;;;;;;;;;;5113941;28;19947;-46
2023/03/21 06:53:26;;;;;;;;;;;;;;;;;;5113794;28;19962;-47
2023/03/21 06:55:51;;;;;;;;;;;;;;;;;;5113734;28;19969;-46
2023/03/21 06:58:16;;;;;;;;;;;;;;;;;;5143129;27;19907;-46
2023/03/21 07:00:43;;;;;;;;;;;;;;;;;;5155016;27;19950;-47
2023/03/21 07:03:09;;;;;;;;;;;;;;;;;;5155023;27;19918;-46
2023/03/21 07:05:34;;;;;;;;;;;;;;;;;;5129653;27;19908;-46
2023/03/21 07:08:00;;;;;;;;;;;;;;;;;;5113361;28;19907;-47
2023/03/21 07:10:25;;;;;;;;;;;;;;;;;;5113530;28;19915;-47
2023/03/21 07:12:51;;;;;;;;;;;;;;;;;;5113530;28;19915;-47
2023/03/21 07:15:16;;;;;;;;;;;;;;;;;;5113692;28;19920;-47
2023/03/21 07:17:41;;;;;;;;;;;;;;;;;;5113181;28;19915;-47
2023/03/21 07:20:07;;;;;;;;;;;;;;;;;;5113440;28;19994;-46
2023/03/21 07:22:33;;;;;;;;;;;;;;;;;;5113950;28;19915;-47
2023/03/21 07:24:58;;;;;;;;;;;;;;;;;;5113301;28;19912;-47
2023/03/21 07:27:24;;;;;;;;;;;;;;;;;;5112901;28;19907;-47
2023/03/21 07:29:49;;;;;;;;;;;;;;;;;;5117357;27;19912;-47
2023/03/21 07:32:15;;;;;;;;;;;;;;;;;;5131567;27;19930;-47
2023/03/21 07:34:41;;;;;;;;;;;;;;;;;;5121386;27;20433;-47
2023/03/21 07:37:06;;;;;;;;;;;;;;;;;;5120461;27;20370;-46
2023/03/21 07:39:33;;;;;;;;;;;;;;;;;;5132510;27;19954;-47
2023/03/21 07:41:58;;;;;;;;;;;;;;;;;;5133886;27;19912;-47
2023/03/21 07:44:24;;;;;;;;;;;;;;;;;;5123180;27;20264;-46
2023/03/21 07:46:49;;;;;;;;;;;;;;;;;;5112734;28;20364;-46
2023/03/21 07:49:15;;;;;;;;;;;;;;;;;;5122863;27;20413;-47
2023/03/21 07:51:40;;;;;;;;;;;;;;;;;;5133745;27;20318;-46
2023/03/21 07:54:06;;;;;;;;;;;;;;;;;;5134169;27;20345;-47
2023/03/21 07:56:31;;;;;;;;;;;;;;;;;;5134405;27;19912;-47
2023/03/21 07:58:57;;;;;;;;;;;;;;;;;;5138707;27;20463;-46
2023/03/21 08:01:23;;;;;;;;;;;;;;;;;;5130141;27;19912;-46
2023/03/21 08:03:50;;;;;;;;;;;;;;;;;;5121347;27;19939;-47
2023/03/21 08:06:15;;;;;;;;;;;;;;;;;;5136242;27;20263;-47
2023/03/21 08:08:40;;;;;;;;;;;;;;;;;;5137952;27;19918;-46
2023/03/21 08:11:06;;;;;;;;;;;;;;;;;;5140280;27;19914;-47
2023/03/21 08:13:31;;;;;;;;;;;;;;;;;;5138152;27;19962;-46
2023/03/21 08:15:57;;;;;;;;;;;;;;;;;;5128392;27;19919;-46
2023/03/21 08:18:22;;;;;;;;;;;;;;;;;;5135006;27;20305;-46
2023/03/21 08:20:48;;;;;;;;;;;;;;;;;;5129326;22;20391;-47
2023/03/21 08:23:13;;;;;;;;;;;;;;;;;;5117713;28;19916;-46
2023/03/21 08:25:39;;;;;;;;;;;;;;;;;;5118098;28;19973;-46
2023/03/21 08:28:04;;;;;;;;;;;;;;;;;;5118160;28;19964;-49
2023/03/21 08:30:30;;;;;;;;;;;;;;;;;;5116939;28;19915;-48
2023/03/21 08:32:56;;;;;;;;;;;;;;;;;;5102451;28;19923;-47
2023/03/21 08:35:21;;;;;;;;;;;;;;;;;;5108027;28;19919;-46
2023/03/21 08:37:47;;;;;;;;;;;;;;;;;;5118956;28;19957;-46
2023/03/21 08:40:13;;;;;;;;;;;;;;;;;;5119357;28;19977;-47
2023/03/21 08:42:38;;;;;;;;;;;;;;;;;;5099614;28;19919;-46
2023/03/21 08:45:03;;;;;;;;;;;;;;;;;;5098897;28;19909;-46
2023/03/21 08:47:29;;;;;;;;;;;;;;;;;;5087428;28;19912;-46
2023/03/21 08:49:54;;;;;;;;;;;;;;;;;;5078734;28;20388;-47
2023/03/21 08:52:20;;;;;;;;;;;;;;;;;;5078574;28;19947;-47
2023/03/21 08:54:45;;;;;;;;;;;;;;;;;;5115879;28;19915;-46
2023/03/21 08:57:11;;;;;;;;;;;;;;;;;;5118864;28;19915;-46
2023/03/21 08:59:36;;;;;;;;;;;;;;;;;;5119192;28;20002;-46
2023/03/21 09:02:02;;;;;;;;;;;;;;;;;;5119245;27;20014;-46
2023/03/21 09:04:29;;;;;;;;;;;;;;;;;;5096518;28;19909;-46
2023/03/21 09:06:55;;;;;;;;;;;;;;;;;;5078296;28;19908;-47
2023/03/21 09:09:20;;;;;;;;;;;;;;;;;;5074292;28;19985;-47
2023/03/21 09:11:46;;;;;;;;;;;;;;;;;;5075330;28;19915;-46
2023/03/21 09:14:11;;;;;;;;;;;;;;;;;;5075151;28;19924;-47
2023/03/21 09:16:37;;;;;;;;;;;;;;;;;;5075000;28;19912;-47
2023/03/21 09:19:03;;;;;;;;;;;;;;;;;;5074996;28;19969;-47
2023/03/21 09:21:29;;;;;;;;;;;;;;;;;;5090765;28;19931;-47
2023/03/21 09:23:57;;;;;;;;;;;;;;;;;;5095159;28;19908;-46
2023/03/21 09:26:22;;;;;;;;;;;;;;;;;;5095141;28;20248;-47
2023/03/21 09:28:48;;;;;;;;;;;;;;;;;;5095244;28;19912;-46
2023/03/21 09:31:15;;;;;;;;;;;;;;;;;;5132074;27;20279;-46
2023/03/21 09:33:41;;;;;;;;;;;;;;;;;;5128765;27;19908;-47
2023/03/21 09:36:10;;;;;;;;;;;;;;;;;;5107273;28;20402;-47
2023/03/21 09:38:36;;;;;;;;;;;;;;;;;;5095513;28;19912;-46
2023/03/21 09:41:02;;;;;;;;;;;;;;;;;;5100435;27;19912;-46
2023/03/21 09:43:27;;;;;;;;;;;;;;;;;;5135789;27;19907;-46
2023/03/21 09:45:53;;;;;;;;;;;;;;;;;;5122448;27;20276;-46
2023/03/21 09:48:28;;;;;;;;;;;;;;;;;;5103559;28;19989;-46
2023/03/21 09:50:54;;;;;;;;;;;;;;;;;;5126975;27;19914;-46
2023/03/21 09:53:19;;;;;;;;;;;;;;;;;;5133126;27;19954;-47
2023/03/21 09:55:45;;;;;;;;;;;;;;;;;;5100914;28;20002;-46
2023/03/21 09:58:11;;;;;;;;;;;;;;;;;;5094548;28;19909;-46
2023/03/21 10:00:36;;;;;;;;;;;;;;;;;;5094624;28;19908;-46
2023/03/21 10:03:05;;;;;;;;;;;;;;;;;;5094418;28;20356;-46
2023/03/21 10:05:31;;;;;;;;;;;;;;;;;;5099446;27;19952;-46
2023/03/21 10:07:56;;;;;;;;;;;;;;;;;;5135312;27;19998;-46
2023/03/21 10:10:23;;;;;;;;;;;;;;;;;;5135022;27;20266;-46
2023/03/21 10:12:48;;;;;;;;;;;;;;;;;;5097316;22;19994;-46
2023/03/21 10:15:14;;;;;;;;;;;;;;;;;;5073871;28;20344;-46
2023/03/21 10:17:41;;;;;;;;;;;;;;;;;;5073771;28;19995;-46
2023/03/21 10:20:10;;;;;;;;;;;;;;;;;;5072813;28;19915;-46
2023/03/21 10:22:36;;;;;;;;;;;;;;;;;;5073872;28;20038;-46
2023/03/21 10:25:01;;;;;;;;;;;;;;;;;;5073872;28;19995;-47
2023/03/21 10:27:26;;;;;;;;;;;;;;;;;;5073497;28;20042;-46
2023/03/21 10:29:52;;;;;;;;;;;;;;;;;;5074278;28;19995;-47
2023/03/21 10:32:17;;;;;;;;;;;;;;;;;;5073892;28;20364;-46
2023/03/21 10:34:43;;;;;;;;;;;;;;;;;;5073389;28;20344;-47
2023/03/21 10:37:08;;;;;;;;;;;;;;;;;;5073302;28;19915;-46
2023/03/21 10:39:34;;;;;;;;;;;;;;;;;;5073332;28;19916;-46
2023/03/21 10:41:59;;;;;;;;;;;;;;;;;;5073514;28;20373;-46
2023/03/21 10:44:25;;;;;;;;;;;;;;;;;;5072779;28;19936;-46
2023/03/21 10:46:50;;;;;;;;;;;;;;;;;;5058979;28;19919;-46
2023/03/21 10:49:16;;;;;;;;;;;;;;;;;;5066727;28;20278;-46
2023/03/21 10:51:41;;;;;;;;;;;;;;;;;;5053312;28;20401;-46
2023/03/21 10:54:07;;;;;;;;;;;;;;;;;;5062215;28;19920;-46
2023/03/21 10:56:32;;;;;;;;;;;;;;;;;;5069983;28;19912;-46
2023/03/21 10:58:58;;;;;;;;;;;;;;;;;;5067090;28;19908;-45
2023/03/21 11:01:24;;;;;;;;;;;;;;;;;;5093255;28;19909;-46
2023/03/21 11:03:50;;;;;;;;;;;;;;;;;;5089124;28;19980;-46
2023/03/21 11:06:16;;;;;;;;;;;;;;;;;;5093242;28;20578;-46
2023/03/21 11:08:41;;;;;;;;;;;;;;;;;;5093275;28;20009;-46
2023/03/21 11:11:07;;;;;;;;;;;;;;;;;;5092882;28;19992;-46
2023/03/21 11:13:32;;;;;;;;;;;;;;;;;;5093244;28;19943;-45
2023/03/21 11:15:58;;;;;;;;;;;;;;;;;;5081372;28;20277;-45
2023/03/21 11:18:23;;;;;;;;;;;;;;;;;;5072911;28;19908;-46
2023/03/21 11:20:49;;;;;;;;;;;;;;;;;;5059000;28;19909;-46
2023/03/21 11:23:14;;;;;;;;;;;;;;;;;;5052775;28;19909;-47
2023/03/21 11:25:40;;;;;;;;;;;;;;;;;;5052578;28;19967;-47
2023/03/21 11:28:05;;;;;;;;;;;;;;;;;;5052795;28;20060;-46
2023/03/21 11:30:31;;;;;;;;;;;;;;;;;;5052793;28;20269;-46
2023/03/21 11:32:57;;;;;;;;;;;;;;;;;;5052753;28;19908;-46
2023/03/21 11:35:22;;;;;;;;;;;;;;;;;;5052506;28;19916;-47
2023/03/21 11:37:49;;;;;;;;;;;;;;;;;;5055568;28;19935;-46
2023/03/21 11:40:15;;;;;;;;;;;;;;;;;;5072450;28;20004;-46
2023/03/21 11:42:40;;;;;;;;;;;;;;;;;;5072752;28;19991;-45
2023/03/21 11:45:06;;;;;;;;;;;;;;;;;;5072878;28;19908;-47
2023/03/21 11:47:31;;;;;;;;;;;;;;;;;;5072320;28;19909;-46
2023/03/21 11:49:57;;;;;;;;;;;;;;;;;;5072936;28;19982;-47
2023/03/21 11:52:23;;;;;;;;;;;;;;;;;;5072371;28;19909;-46
2023/03/21 11:54:48;;;;;;;;;;;;;;;;;;5058343;28;20443;-46
2023/03/21 11:57:13;;;;;;;;;;;;;;;;;;5058526;28;20361;-47
2023/03/21 11:59:39;;;;;;;;;;;;;;;;;;5057703;28;19936;-46
2023/03/21 12:02:05;;;;;;;;;;;;;;;;;;5051553;28;19919;-46
2023/03/21 12:04:30;;;;;;;;;;;;;;;;;;5085071;22;20303;-46
2023/03/21 12:06:56;;;;;;;;;;;;;;;;;;5110798;28;19927;-46
2023/03/21 12:09:21;;;;;;;;;;;;;;;;;;5101880;28;19919;-46
2023/03/21 12:11:47;;;;;;;;;;;;;;;;;;5111117;28;19919;-46
2023/03/21 12:14:12;;;;;;;;;;;;;;;;;;5112571;28;19926;-46
2023/03/21 12:16:40;;;;;;;;;;;;;;;;;;5112378;28;19922;-46
2023/03/21 12:19:06;;;;;;;;;;;;;;;;;;5097367;28;19916;-47
2023/03/21 12:21:31;;;;;;;;;;;;;;;;;;5109276;28;19911;-46
2023/03/21 12:23:57;;;;;;;;;;;;;;;;;;5112611;28;19995;-46
2023/03/21 12:26:22;;;;;;;;;;;;;;;;;;5112263;28;19998;-46
2023/03/21 12:28:48;;;;;;;;;;;;;;;;;;5112312;28;19999;-46
2023/03/21 12:31:13;;;;;;;;;;;;;;;;;;5101555;28;20007;-47
2023/03/21 12:33:39;;;;;;;;;;;;;;;;;;5091440;28;20309;-47
2023/03/21 12:36:04;;;;;;;;;;;;;;;;;;5095880;28;19911;-47
2023/03/21 12:38:29;;;;;;;;;;;;;;;;;;5101651;28;19918;-47
2023/03/21 12:40:55;;;;;;;;;;;;;;;;;;5112125;28;19943;-47
2023/03/21 12:43:21;;;;;;;;;;;;;;;;;;5113336;28;19908;-47
2023/03/21 12:45:47;;;;;;;;;;;;;;;;;;5101164;28;19947;-47
2023/03/21 12:48:12;;;;;;;;;;;;;;;;;;5093314;28;20000;-47
2023/03/21 12:50:37;;;;;;;;;;;;;;;;;;5079618;28;20009;-47
2023/03/21 12:53:03;;;;;;;;;;;;;;;;;;5075600;28;19908;-47
2023/03/21 12:55:28;;;;;;;;;;;;;;;;;;5075064;28;20360;-47
2023/03/21 12:57:54;;;;;;;;;;;;;;;;;;5075745;28;19908;-47
2023/03/21 13:00:19;;;;;;;;;;;;;;;;;;5075438;28;19955;-47
2023/03/21 13:02:45;;;;;;;;;;;;;;;;;;5089204;28;20257;-47
2023/03/21 13:05:11;;;;;;;;;;;;;;;;;;5095207;28;20433;-47
2023/03/21 13:07:37;;;;;;;;;;;;;;;;;;5095432;28;19909;-47
2023/03/21 13:10:02;;;;;;;;;;;;;;;;;;5095834;28;19912;-47
2023/03/21 13:12:28;;;;;;;;;;;;;;;;;;5095420;28;20394;-47
2023/03/21 13:14:53;;;;;;;;;;;;;;;;;;5095399;28;19966;-47
2023/03/21 13:17:19;;;;;;;;;;;;;;;;;;5095375;28;19962;-47
2023/03/21 13:19:44;;;;;;;;;;;;;;;;;;5095341;28;19953;-47
2023/03/21 13:22:10;;;;;;;;;;;;;;;;;;5095271;28;20349;-48
2023/03/21 13:24:35;;;;;;;;;;;;;;;;;;5094973;28;19993;-47
2023/03/21 13:27:01;;;;;;;;;;;;;;;;;;5086480;28;19919;-47
2023/03/21 13:29:26;;;;;;;;;;;;;;;;;;5074189;28;19923;-47
2023/03/21 13:31:52;;;;;;;;;;;;;;;;;;5078883;28;19912;-47
2023/03/21 13:34:17;;;;;;;;;;;;;;;;;;5080402;28;19920;-47
2023/03/21 13:36:42;;;;;;;;;;;;;;;;;;5093612;28;20389;-47
2023/03/21 13:39:08;;;;;;;;;;;;;;;;;;5094401;28;20361;-47
2023/03/21 13:41:33;;;;;;;;;;;;;;;;;;5090826;28;19914;-47
2023/03/21 13:43:59;;;;;;;;;;;;;;;;;;5091381;28;19912;-47
2023/03/21 13:46:24;;;;;;;;;;;;;;;;;;5092949;28;19970;-49
2023/03/21 13:48:50;;;;;;;;;;;;;;;;;;5094516;28;19994;-48
2023/03/21 13:51:15;;;;;;;;;;;;;;;;;;5080746;28;19927;-48
2023/03/21 13:53:43;;;;;;;;;;;;;;;;;;5086966;28;19919;-48
2023/03/21 13:56:08;;;;;;;;;;;;;;;;;;5094116;28;19908;-47
2023/03/21 13:58:34;;;;;;;;;;;;;;;;;;5091797;28;20027;-44
2023/03/21 14:01:00;;;;;;;;;;;;;;;;;;5094291;28;19916;-44
2023/03/21 14:03:25;;;;;;;;;;;;;;;;;;5097670;28;20426;-45
2023/03/21 14:05:51;;;;;;;;;;;;;;;;;;5114308;28;19920;-44
2023/03/21 14:08:16;;;;;;;;;;;;;;;;;;5114410;28;19912;-44
2023/03/21 14:10:41;;;;;;;;;;;;;;;;;;5100860;28;20002;-48
2023/03/21 14:13:08;;;;;;;;;;;;;;;;;;5093508;28;19923;-48
2023/03/21 14:15:34;;;;;;;;;;;;;;;;;;5096739;28;19916;-48
2023/03/21 14:18:00;;;;;;;;;;;;;;;;;;5093761;28;19916;-48
2023/03/21 14:20:26;;;;;;;;;;;;;;;;;;5089742;28;19916;-48
2023/03/21 14:22:51;;;;;;;;;;;;;;;;;;5073539;28;20045;-48
2023/03/21 14:25:17;;;;;;;;;;;;;;;;;;5073577;28;19991;-48
2023/03/21 14:27:42;;;;;;;;;;;;;;;;;;5087179;28;19919;-48
2023/03/21 14:30:07;;;;;;;;;;;;;;;;;;5093974;28;19908;-48
2023/03/21 14:32:33;;;;;;;;;;;;;;;;;;5093851;28;19919;-48
2023/03/21 14:34:58;;;;;;;;;;;;;;;;;;5093582;28;19930;-48
2023/03/21 14:37:24;;;;;;;;;;;;;;;;;;5088927;28;19958;-47
2023/03/21 14:39:49;;;;;;;;;;;;;;;;;;5087321;28;19912;-48
2023/03/21 14:42:15;;;;;;;;;;;;;;;;;;5093532;28;19918;-47
2023/03/21 14:44:40;;;;;;;;;;;;;;;;;;5092133;28;20425;-45
2023/03/21 14:47:06;;;;;;;;;;;;;;;;;;5092244;28;20303;-45
2023/03/21 14:49:31;;;;;;;;;;;;;;;;;;5093300;28;20373;-45
2023/03/21 14:51:57;;;;;;;;;;;;;;;;;;5091091;28;19919;-47
2023/03/21 14:54:23;;;;;;;;;;;;;;;;;;5087613;28;19928;-45
2023/03/21 14:56:49;;;;;;;;;;;;;;;;;;5077703;28;19912;-45
2023/03/21 14:59:15;;;;;;;;;;;;;;;;;;5084445;28;20379;-44
2023/03/21 15:01:40;;;;;;;;;;;;;;;;;;5093055;28;19928;-44
2023/03/21 15:04:06;;;;;;;;;;;;;;;;;;5091561;28;19931;-48
2023/03/21 15:06:31;;;;;;;;;;;;;;;;;;5092119;28;19915;-41
2023/03/21 15:08:57;;;;;;;;;;;;;;;;;;5091029;28;19919;-40
2023/03/21 15:11:22;;;;;;;;;;;;;;;;;;5074540;28;19977;-38
2023/03/21 15:13:49;;;;;;;;;;;;;;;;;;5092332;28;19934;-39
2023/03/21 15:16:14;;;;;;;;;;;;;;;;;;5085990;28;19918;-39
2023/03/21 15:18:40;;;;;;;;;;;;;;;;;;5089737;28;19908;-46
2023/03/21 15:21:05;;;;;;;;;;;;;;;;;;5089063;28;20343;-38
2023/03/21 15:23:30;;;;;;;;;;;;;;;;;;5072404;28;19916;-39
2023/03/21 15:25:56;;;;;;;;;;;;;;;;;;5072321;28;19927;-38
2023/03/21 15:28:21;;;;;;;;;;;;;;;;;;5072224;28;19999;-38
2023/03/21 15:30:47;;;;;;;;;;;;;;;;;;5072780;28;19943;-38
2023/03/21 15:33:12;;;;;;;;;;;;;;;;;;5078671;28;19974;-38
2023/03/21 15:35:37;;;;;;;;;;;;;;;;;;5085136;28;20019;-38
2023/03/21 15:38:03;;;;;;;;;;;;;;;;;;5092703;28;19947;-38
2023/03/21 15:40:28;;;;;;;;;;;;;;;;;;5093036;28;20321;-38
2023/03/21 15:42:54;;;;;;;;;;;;;;;;;;5092695;28;20291;-38
2023/03/21 15:45:19;;;;;;;;;;;;;;;;;;5092589;28;19908;-38
2023/03/21 15:47:45;;;;;;;;;;;;;;;;;;5092721;28;19915;-38
2023/03/21 15:50:10;;;;;;;;;;;;;;;;;;5092669;28;19931;-38
2023/03/21 15:52:36;;;;;;;;;;;;;;;;;;5092578;28;20294;-38
2023/03/21 15:55:01;;;;;;;;;;;;;;;;;;5092247;28;20296;-37
2023/03/21 15:57:31;;;;;;;;;;;;;;;;;;5092703;28;19967;-38
2023/03/21 15:59:57;;;;;;;;;;;;;;;;;;5092549;28;19940;-38
2023/03/21 16:02:22;;;;;;;;;;;;;;;;;;5092739;28;19985;-38
2023/03/21 16:04:48;;;;;;;;;;;;;;;;;;5085815;28;20359;-41
2023/03/21 16:07:15;;;;;;;;;;;;;;;;;;5079546;28;20023;-42
2023/03/21 16:09:41;;;;;;;;;;;;;;;;;;5089010;28;19919;-42
2023/03/21 16:12:06;;;;;;;;;;;;;;;;;;5090196;28;20002;-42
2023/03/21 16:14:32;;;;;;;;;;;;;;;;;;5091224;28;19920;-42
2023/03/21 16:16:57;;;;;;;;;;;;;;;;;;5091484;28;19912;-42
2023/03/21 16:19:23;;;;;;;;;;;;;;;;;;5095821;28;20003;-40
2023/03/21 16:21:49;;;;;;;;;;;;;;;;;;5096175;28;19916;-39
2023/03/21 16:24:14;;;;;;;;;;;;;;;;;;5088796;28;20384;-40
2023/03/21 16:26:40;;;;;;;;;;;;;;;;;;5094944;28;19919;-40
2023/03/21 16:29:07;;;;;;;;;;;;;;;;;;5095867;28;19958;-40
2023/03/21 16:31:32;;;;;;;;;;;;;;;;;;5095898;28;19908;-41
2023/03/21 16:33:58;;;;;;;;;;;;;;;;;;5095925;28;20003;-41
2023/03/21 16:36:23;;;;;;;;;;;;;;;;;;5095610;28;19999;-46
2023/03/21 16:38:48;;;;;;;;;;;;;;;;;;5093933;28;20007;-40